Time;durP1;ratioP1;P1;durP2;ratioP2;P2;SDS_P1;SDS_P2;PMS_P1;PMS_P2;Temp;Humidity;BMP_temperature;BMP_pressure;BME280_temperature;BME280_humidity;BME280_pressure;Samples;Min_cycle;Max_cycle;Signal;HPM_P1;HPM_P2
2021/12/20 00:01:14;;;;;;;90.57;62.10;;;6.90;99.90;;;;;;6102743;23;20297;-84
2021/12/20 00:03:40;;;;;;;85.53;47.57;;;6.90;99.90;;;;;;6127909;23;20213;-84
2021/12/20 00:06:06;;;;;;;88.57;53.33;;;7.00;99.90;;;;;;6127284;23;20518;-84
2021/12/20 00:08:31;;;;;;;92.77;58.00;;;6.90;99.90;;;;;;6127650;23;20366;-83
2021/12/20 00:10:57;;;;;;;101.67;51.00;;;6.90;99.90;;;;;;6101831;23;20912;-83
2021/12/20 00:13:23;;;;;;;87.33;49.17;;;6.90;99.90;;;;;;6100850;23;20174;-85
2021/12/20 00:15:50;;;;;;;91.60;46.20;;;6.90;99.90;;;;;;6127422;23;20146;-84
2021/12/20 00:18:15;;;;;;;92.32;54.35;;;6.90;99.90;;;;;;6127228;23;20206;-84
2021/12/20 00:20:41;;;;;;;88.63;48.40;;;6.90;99.90;;;;;;6101571;23;20194;-84
2021/12/20 00:23:10;;;;;;;90.10;49.23;;;6.90;99.90;;;;;;6127151;23;20293;-83
2021/12/20 00:25:35;;;;;;;93.70;45.85;;;6.90;99.90;;;;;;6126764;23;20397;-84
2021/12/20 00:28:01;;;;;;;94.67;57.60;;;6.90;99.90;;;;;;6125384;23;20147;-84
2021/12/20 00:30:29;;;;;;;88.43;49.93;;;6.90;99.90;;;;;;6101186;23;20234;-84
2021/12/20 00:32:56;;;;;;;89.75;55.05;;;7.00;99.90;;;;;;6127103;23;20146;-84
2021/12/20 00:35:25;;;;;;;88.28;50.72;;;7.00;99.90;;;;;;6126639;23;20150;-83
2021/12/20 00:40:42;;;;;;;83.45;42.58;;;6.90;99.90;;;;;;6117392;23;20210;-86
2021/12/20 00:43:08;;;;;;;87.03;42.60;;;6.90;99.90;;;;;;6122904;23;20159;-86
2021/12/20 00:45:35;;;;;;;93.67;59.93;;;6.90;99.90;;;;;;6096118;23;20148;-86
2021/12/20 00:48:04;;;;;;;87.72;52.53;;;6.90;99.90;;;;;;6122744;23;20200;-86
2021/12/20 00:50:34;;;;;;;88.07;46.80;;;6.90;99.90;;;;;;6122462;23;20143;-86
2021/12/20 00:53:05;;;;;;;86.20;49.75;;;6.90;99.90;;;;;;6122736;23;20233;-87
2021/12/20 00:55:31;;;;;;;85.45;47.47;;;6.90;99.90;;;;;;6096705;23;20147;-86
2021/12/20 00:58:03;;;;;;;85.90;43.23;;;6.90;99.90;;;;;;6122947;23;20222;-87
2021/12/20 01:00:35;;;;;;;85.47;50.03;;;6.90;99.90;;;;;;6097111;23;20418;-86
2021/12/20 01:03:03;;;;;;;89.03;41.75;;;6.80;99.90;;;;;;6122950;23;20163;-86
2021/12/20 01:05:32;;;;;;;83.47;44.47;;;6.80;99.90;;;;;;6096949;23;20487;-86
2021/12/20 01:08:01;;;;;;;86.72;44.92;;;6.80;99.90;;;;;;6096856;23;20479;-86
2021/12/20 01:10:28;;;;;;;88.15;42.65;;;6.80;99.90;;;;;;6073399;23;20170;-86
2021/12/20 01:12:55;;;;;;;86.38;52.90;;;6.80;99.90;;;;;;6122261;23;20528;-86
2021/12/20 01:15:36;;;;;;;92.80;45.17;;;6.80;99.90;;;;;;6096788;23;20151;-86
2021/12/20 01:18:10;;;;;;;87.57;44.67;;;6.80;99.90;;;;;;6097844;23;20169;-86
2021/12/20 01:20:36;;;;;;;91.45;54.78;;;6.80;99.90;;;;;;6122311;23;20159;-86
2021/12/20 01:23:08;;;;;;;82.15;43.47;;;6.70;99.90;;;;;;6096821;23;20171;-87
2021/12/20 01:25:36;;;;;;;82.47;47.25;;;6.80;99.90;;;;;;6122127;23;20194;-87
2021/12/20 01:28:03;;;;;;;86.22;47.13;;;6.80;99.90;;;;;;6122199;23;20174;-86
2021/12/20 01:30:31;;;;;;;86.00;46.38;;;6.80;99.90;;;;;;6122511;23;20143;-86
2021/12/20 01:33:00;;;;;;;89.55;47.05;;;6.80;99.90;;;;;;6122215;23;20143;-86
2021/12/20 01:35:33;;;;;;;86.20;37.75;;;6.80;99.90;;;;;;6096359;23;20146;-86
2021/12/20 01:37:59;;;;;;;85.25;50.88;;;6.70;99.90;;;;;;6122293;23;20157;-86
2021/12/20 01:40:28;;;;;;;84.10;46.53;;;6.70;99.90;;;;;;6122106;23;20178;-86
2021/12/20 01:42:58;;;;;;;83.85;46.63;;;6.80;99.90;;;;;;6122087;23;20146;-86
2021/12/20 01:45:27;;;;;;;86.97;41.30;;;6.70;99.90;;;;;;6095770;23;20230;-86
2021/12/20 01:48:03;;;;;;;104.25;50.75;;;6.70;99.90;;;;;;6096916;23;20190;-87
2021/12/20 01:53:25;;;;;;;83.95;43.38;;;6.80;99.90;;;;;;6043786;23;20172;-87
2021/12/20 01:55:53;;;;;;;89.82;43.70;;;6.80;99.90;;;;;;6122495;23;20127;-86
2021/12/20 01:58:19;;;;;;;80.85;42.53;;;6.80;99.90;;;;;;6096146;23;20154;-86
2021/12/20 02:03:32;;;;;;;84.43;39.85;;;6.70;99.90;;;;;;6122491;23;20196;-86
2021/12/20 02:05:59;;;;;;;83.22;44.22;;;6.70;99.90;;;;;;6096300;23;20173;-87
2021/12/20 02:08:28;;;;;;;87.20;48.47;;;6.80;99.90;;;;;;6121139;23;20191;-86
2021/12/20 02:10:58;;;;;;;83.78;45.72;;;6.70;99.90;;;;;;6096088;23;20162;-86
2021/12/20 02:13:28;;;;;;;83.07;46.10;;;6.80;99.90;;;;;;6122290;23;20492;-86
2021/12/20 02:15:55;;;;;;;86.20;52.88;;;6.70;99.90;;;;;;6096321;23;20169;-86
2021/12/20 02:18:22;;;;;;;87.88;49.00;;;6.80;99.90;;;;;;6096392;23;20150;-86
2021/12/20 02:20:48;;;;;;;83.85;46.38;;;6.70;99.90;;;;;;6121918;23;20170;-86
2021/12/20 02:23:14;;;;;;;84.90;42.60;;;6.70;99.90;;;;;;6122271;23;20167;-86
2021/12/20 02:25:45;;;;;;;81.97;42.90;;;6.70;99.90;;;;;;6096473;23;20498;-87
2021/12/20 02:28:16;;;;;;;82.20;40.65;;;6.70;99.90;;;;;;6096956;23;20147;-86
2021/12/20 02:36:52;;;;;;;84.85;45.15;;;6.70;99.90;;;;;;6096913;23;20146;-86
2021/12/20 02:38:59;;;;;;;81.63;38.75;;;6.70;99.90;;;;;;6122913;23;20166;-87
2021/12/20 02:41:32;;;;;;;85.28;47.88;;;6.60;99.90;;;;;;6095968;23;20296;-86
2021/12/20 02:44:16;;;;;;;;;;;;;;;;;;;;;
2021/12/20 02:46:50;;;;;;;81.65;40.13;;;6.60;99.90;;;;;;6122323;23;20229;-86
2021/12/20 02:49:41;;;;;;;91.38;41.35;;;6.60;99.90;;;;;;6119852;23;20175;-86
2021/12/20 02:52:08;;;;;;;88.55;45.80;;;6.60;99.90;;;;;;6111832;23;20212;-87
2021/12/20 02:54:34;;;;;;;83.57;49.53;;;6.60;99.90;;;;;;6121860;23;20165;-86
2021/12/20 02:57:06;;;;;;;85.88;52.55;;;6.60;99.90;;;;;;6096551;23;20150;-86
2021/12/20 02:59:35;;;;;;;89.63;49.50;;;6.70;99.90;;;;;;6095639;23;20158;-86
2021/12/20 03:02:10;;;;;;;86.32;50.90;;;6.60;99.90;;;;;;6096902;23;20220;-86
2021/12/20 03:04:45;;;;;;;83.28;44.30;;;6.60;99.90;;;;;;6093010;22;20294;-86
2021/12/20 03:07:23;;;;;;;86.43;51.58;;;6.60;99.90;;;;;;6095160;23;20196;-87
2021/12/20 03:09:55;;;;;;;84.57;50.80;;;6.60;99.90;;;;;;6095869;23;20150;-86
2021/12/20 03:12:25;;;;;;;91.28;50.95;;;6.60;99.90;;;;;;6095179;23;20226;-87
2021/12/20 03:15:05;;;;;;;85.07;46.67;;;6.60;99.90;;;;;;6121229;23;20171;-86
2021/12/20 03:17:45;;;;;;;88.00;51.70;;;6.60;99.90;;;;;;6096628;23;20150;-86
2021/12/20 03:20:24;;;;;;;84.43;40.40;;;6.60;99.90;;;;;;6122737;23;20168;-86
2021/12/20 03:22:53;;;;;;;81.55;38.17;;;6.70;99.90;;;;;;6095531;23;20147;-86
2021/12/20 03:25:34;;;;;;;84.75;43.25;;;6.60;99.90;;;;;;6096146;23;20157;-86
2021/12/20 03:28:01;;;;;;;87.95;40.38;;;6.60;99.90;;;;;;6121783;23;20193;-86
2021/12/20 03:30:44;;;;;;;90.75;49.15;;;6.70;99.90;;;;;;6095842;23;20461;-86
2021/12/20 03:36:07;;;;;;;88.28;44.50;;;6.60;99.90;;;;;;6109374;23;20147;-87
2021/12/20 03:38:44;;;;;;;80.43;35.92;;;6.70;99.90;;;;;;6121616;23;20319;-87
2021/12/20 03:41:29;;;;;;;89.22;37.25;;;6.70;99.90;;;;;;6095885;23;20178;-86
2021/12/20 03:44:09;;;;;;;85.88;39.15;;;6.70;99.90;;;;;;6097775;23;20250;-87
2021/12/20 03:46:43;;;;;;;81.03;36.83;;;6.70;99.90;;;;;;6094664;23;20144;-87
2021/12/20 03:49:18;;;;;;;82.72;35.88;;;6.70;99.90;;;;;;6123108;23;20549;-87
2021/12/20 03:51:44;;;;;;;86.22;42.22;;;6.70;99.90;;;;;;6120906;23;20154;-87
2021/12/20 03:54:12;;;;;;;81.85;30.98;;;6.70;99.90;;;;;;6097018;23;20235;-86
2021/12/20 03:57:08;;;;;;;84.13;31.27;;;6.70;99.90;;;;;;6122507;23;20139;-86
2021/12/20 03:59:46;;;;;;;80.35;30.52;;;6.70;99.90;;;;;;6095226;23;20147;-87
2021/12/20 04:02:57;;;;;;;88.70;32.90;;;6.70;99.90;;;;;;6122992;23;20181;-87
2021/12/20 04:05:34;;;;;;;77.97;27.23;;;6.70;99.90;;;;;;6096396;23;20155;-86
2021/12/20 04:08:00;;;;;;;79.60;34.00;;;6.70;99.90;;;;;;6122968;23;20119;-87
2021/12/20 04:10:32;;;;;;;79.82;36.03;;;6.70;99.90;;;;;;6096809;23;20488;-87
2021/12/20 04:13:01;;;;;;;83.60;43.22;;;6.70;99.90;;;;;;6097599;23;20147;-87
2021/12/20 04:15:27;;;;;;;80.22;35.72;;;6.70;99.90;;;;;;6121151;23;20199;-87
2021/12/20 04:18:09;;;;;;;82.13;39.40;;;6.70;99.90;;;;;;6097220;23;20353;-87
2021/12/20 04:20:51;;;;;;;82.97;34.83;;;6.70;99.90;;;;;;6098031;23;20201;-86
2021/12/20 04:23:26;;;;;;;80.97;29.00;;;6.70;99.90;;;;;;6096876;23;20326;-87
2021/12/20 04:28:39;;;;;;;83.57;37.47;;;6.70;99.90;;;;;;6107075;23;20691;-86
2021/12/20 04:31:07;;;;;;;82.97;40.22;;;6.70;99.90;;;;;;6096660;23;20234;-86
2021/12/20 04:34:20;;;;;;;84.72;30.35;;;6.70;99.90;;;;;;6097805;23;20240;-87
2021/12/20 04:36:47;;;;;;;76.68;26.30;;;6.70;99.90;;;;;;6098178;23;20159;-86
2021/12/20 04:39:19;;;;;;;77.57;27.33;;;6.70;99.90;;;;;;6122809;23;20149;-87
2021/12/20 04:41:54;;;;;;;79.85;31.20;;;6.70;99.90;;;;;;6097337;23;20663;-86
2021/12/20 04:44:27;;;;;;;82.68;35.85;;;6.70;99.90;;;;;;6122572;23;20241;-87
2021/12/20 04:46:53;;;;;;;83.18;34.10;;;6.70;99.90;;;;;;6098618;23;20225;-86
2021/12/20 04:49:40;;;;;;;80.00;35.03;;;6.70;99.90;;;;;;6092771;23;20229;-87
2021/12/20 04:52:30;;;;;;;81.68;36.55;;;6.70;99.90;;;;;;6097150;23;20182;-86
2021/12/20 04:55:18;;;;;;;85.78;37.92;;;6.70;99.90;;;;;;6096513;23;20226;-87
2021/12/20 04:58:06;;;;;;;78.78;33.38;;;6.70;99.90;;;;;;6095845;23;20491;-86
2021/12/20 05:01:05;;;;;;;80.55;32.75;;;6.70;99.90;;;;;;6096768;23;20179;-87
2021/12/20 05:03:59;;;;;;;85.95;32.78;;;6.70;99.90;;;;;;6122405;23;20190;-87
2021/12/20 05:07:16;;;;;;;79.65;32.33;;;6.70;99.90;;;;;;6089807;23;20673;-86
2021/12/20 05:10:24;;;;;;;;;;;;;;;;;;;;;
2021/12/20 05:13:20;;;;;;;;;;;;;;;;;;;;;
2021/12/20 05:16:07;;;;;;;79.38;32.08;;;6.60;99.90;;;;;;6033204;23;20729;-87
2021/12/20 05:26:06;;;;;;;83.20;34.80;;;6.70;99.90;;;;;;6033126;23;20157;-86
2021/12/20 05:29:20;;;;;;;;;;;;;;;;;;;;;
2021/12/20 05:32:21;;;;;;;;;;;;;;;;;;;;;
2021/12/20 05:34:56;;;;;;;80.45;35.08;;;6.60;99.90;;;;;;6122508;23;20258;-86
2021/12/20 05:37:44;;;;;;;81.78;36.85;;;6.60;99.90;;;;;;6096323;23;20146;-86
2021/12/20 05:40:38;;;;;;;85.93;36.90;;;6.60;99.90;;;;;;6096435;23;20174;-87
2021/12/20 05:43:35;;;;;;;86.63;34.65;;;6.70;99.90;;;;;;6097599;23;20627;-87
2021/12/20 05:49:46;;;;;;;79.53;27.40;;;6.60;99.90;;;;;;6183122;23;20141;-87
2021/12/20 05:52:49;;;;;;;96.90;37.08;;;6.70;99.90;;;;;;6143582;23;20165;-86
2021/12/20 05:55:33;;;;;;;86.32;37.03;;;6.60;99.90;;;;;;6158323;23;20597;-86
2021/12/20 05:58:36;;;;;;;;;;;;;;;;;;;;;
2021/12/20 06:01:18;;;;;;;79.82;30.90;;;6.60;99.90;;;;;;6183433;23;20252;-86
2021/12/20 06:04:25;;;;;;;90.97;39.10;;;6.60;99.90;;;;;;6156364;23;20178;-86
2021/12/20 06:07:19;;;;;;;84.57;24.60;;;6.60;99.90;;;;;;6082258;23;20162;-87
2021/12/20 06:10:20;;;;;;;;;;;;;;;;;;;;;
2021/12/20 06:13:22;;;;;;;78.60;24.77;;;6.60;99.90;;;;;;6177792;23;20220;-87
2021/12/20 06:16:26;;;;;;;78.03;21.77;;;6.60;99.90;;;;;;6183387;23;20162;-86
2021/12/20 06:19:40;;;;;;;80.28;25.02;;;6.60;99.90;;;;;;6157851;23;20152;-87
2021/12/20 06:22:37;;;;;;;76.47;22.40;;;6.60;99.90;;;;;;6157983;23;20169;-86
2021/12/20 06:26:11;;;;;;;;;;;;;;;;;;;;;
2021/12/20 06:29:20;;;;;;;79.30;27.73;;;6.60;99.90;;;;;;6122610;23;20229;-86
2021/12/20 06:32:16;;;;;;;81.05;26.42;;;6.50;99.90;;;;;;6064505;23;20610;-87
2021/12/20 06:41:12;;;;;;;82.90;32.22;;;6.40;99.90;;;;;;6120408;23;20202;-83
2021/12/20 06:43:51;;;;;;;80.78;28.08;;;6.40;99.90;;;;;;6099074;23;20498;-84
2021/12/20 06:46:43;;;;;;;77.07;23.95;;;6.40;99.90;;;;;;6124684;23;20135;-83
2021/12/20 06:49:13;;;;;;;77.35;22.42;;;6.40;99.90;;;;;;6098109;23;20143;-84
2021/12/20 06:52:02;;;;;;;79.15;26.98;;;6.40;99.90;;;;;;6124596;23;20204;-83
2021/12/20 06:54:37;;;;;;;84.10;24.60;;;6.40;99.90;;;;;;6098414;23;20175;-84
2021/12/20 06:57:03;;;;;;;79.10;22.52;;;6.30;99.90;;;;;;6124232;23;20506;-84
2021/12/20 06:59:51;;;;;;;84.50;25.40;;;6.30;99.90;;;;;;6123865;23;20147;-85
2021/12/20 07:02:17;;;;;;;77.60;22.50;;;6.30;99.90;;;;;;6123657;23;20614;-84
2021/12/20 07:04:53;;;;;;;77.93;24.95;;;6.30;99.90;;;;;;6123322;23;20229;-85
2021/12/20 07:07:35;;;;;;;77.63;25.67;;;6.20;99.90;;;;;;6122396;23;20148;-84
2021/12/20 07:10:03;;;;;;;78.90;25.92;;;6.20;99.90;;;;;;6123884;23;20150;-84
2021/12/20 07:12:51;;;;;;;78.07;26.55;;;6.20;99.90;;;;;;6124222;23;20221;-85
2021/12/20 07:15:19;;;;;;;79.40;32.80;;;6.20;99.90;;;;;;6124106;23;20120;-84
2021/12/20 07:18:01;;;;;;;80.90;30.15;;;6.20;99.90;;;;;;6098176;23;20161;-84
2021/12/20 07:20:51;;;;;;;83.03;30.10;;;6.20;99.90;;;;;;6123953;23;20174;-83
2021/12/20 07:23:53;;;;;;;90.78;31.85;;;6.20;99.90;;;;;;6125534;23;20257;-84
2021/12/20 07:26:21;;;;;;;85.15;38.00;;;6.20;99.90;;;;;;6086208;23;20192;-83
2021/12/20 07:29:06;;;;;;;80.90;29.25;;;6.20;99.90;;;;;;6125927;23;20162;-84
2021/12/20 07:31:32;;;;;;;84.15;35.05;;;6.20;99.90;;;;;;6103028;23;20566;-84
2021/12/20 07:34:10;;;;;;;83.82;38.35;;;6.20;99.90;;;;;;6125165;23;20159;-83
2021/12/20 07:36:43;;;;;;;87.45;36.33;;;6.00;99.90;;;;;;6106900;23;20542;-84
2021/12/20 07:43:18;;;;;;;;;;;;;;;;;;;;;
2021/12/20 07:49:30;;;;;;;71.60;15.10;;;6.30;99.90;;;;;;6128482;23;20142;-85
2021/12/20 07:52:32;;;;;;;84.80;22.48;;;6.20;99.90;;;;;;6128897;23;20127;-84
2021/12/20 07:55:08;;;;;;;78.93;19.45;;;6.30;99.90;;;;;;6070939;23;20205;-85
2021/12/20 08:05:03;;;;;;;76.03;17.27;;;6.40;99.90;;;;;;6126672;23;20186;-85
2021/12/20 08:08:28;;;;;;;77.20;18.85;;;6.50;99.90;;;;;;6093537;23;20151;-84
2021/12/20 08:11:12;;;;;;;76.95;16.55;;;6.40;99.90;;;;;;6009526;23;20619;-85
2021/12/20 08:14:04;;;;;;;79.32;17.02;;;6.50;99.90;;;;;;6070451;23;20171;-85
2021/12/20 08:20:57;;;;;;;;;;;;;;;;;;;;;
2021/12/20 08:24:24;;;;;;;80.53;23.80;;;6.50;99.90;;;;;;5947464;24;20230;-83
2021/12/20 08:34:35;;;;;;;72.40;11.25;;;6.30;99.90;;;;;;6003697;23;20173;-84
2021/12/20 08:43:41;;;;;;;79.82;13.07;;;6.20;99.90;;;;;;5981498;23;20197;-84
2021/12/20 08:46:21;;;;;;;;;;;;;;;;;;;;;
2021/12/20 08:49:21;;;;;;;83.32;10.30;;;6.20;99.90;;;;;;5974981;24;20237;-83
2021/12/20 08:52:35;;;;;;;82.07;13.80;;;6.20;99.90;;;;;;6050916;23;20154;-83
2021/12/20 08:55:39;;;;;;;76.47;10.13;;;6.20;99.90;;;;;;6124756;23;20202;-84
2021/12/20 08:58:51;;;;;;;;;;;;;;;;;;;;;
2021/12/20 09:01:50;;;;;;;86.75;18.92;;;6.30;99.90;;;;;;6124913;23;20257;-83
2021/12/20 09:04:53;;;;;;;83.75;13.07;;;6.20;99.90;;;;;;6126353;23;20159;-83
2021/12/20 09:07:20;;;;;;;78.15;13.55;;;6.20;99.90;;;;;;6100136;23;20153;-84
2021/12/20 09:10:01;;;;;;;72.00;10.60;;;6.10;99.90;;;;;;6125541;23;20163;-83
2021/12/20 09:12:36;;;;;;;85.60;14.20;;;6.20;99.90;;;;;;6092668;23;20216;-85
2021/12/20 09:15:20;;;;;;;;;;;;;;;;;;;;;
2021/12/20 09:17:59;;;;;;;75.60;20.73;;;6.10;99.90;;;;;;6126801;23;20241;-84
2021/12/20 09:20:58;;;;;;;;;;;;;;;;;;;;;
2021/12/20 09:27:03;;;;;;;85.75;19.73;;;6.00;99.90;;;;;;6037720;23;20490;-83
2021/12/20 09:29:38;;;;;;;83.38;18.20;;;5.90;99.90;;;;;;6009026;23;20153;-82
2021/12/20 09:32:46;;;;;;;78.50;21.30;;;5.80;99.90;;;;;;5985693;23;20657;-84
2021/12/20 09:36:29;;;;;;;;;;;;;;;;;;;;;
2021/12/20 09:39:37;;;;;;;;;;;;;;;;;;;;;
2021/12/20 09:42:53;;;;;;;;;;;;;;;;;;;;;
2021/12/20 09:49:31;;;;;;;78.78;13.35;;;6.00;99.90;;;;;;6009126;23;20176;-86
2021/12/20 09:55:28;;;;;;;76.70;22.45;;;5.90;99.90;;;;;;6066375;23;20590;-85
2021/12/20 09:58:39;;;;;;;80.82;19.52;;;5.90;99.90;;;;;;6066314;23;20482;-84
2021/12/20 10:01:53;;;;;;;79.65;18.63;;;6.00;99.90;;;;;;6064680;23;20175;-84
2021/12/20 10:04:48;;;;;;;80.60;11.30;;;6.00;99.90;;;;;;6065698;23;20172;-85
2021/12/20 10:07:28;;;;;;;80.15;11.88;;;6.10;99.90;;;;;;6045293;23;20148;-83
2021/12/20 10:10:26;;;;;;;81.10;12.43;;;6.10;99.90;;;;;;6065653;23;20216;-85
2021/12/20 10:13:01;;;;;;;80.40;17.70;;;6.10;99.90;;;;;;6013587;23;20148;-84
2021/12/20 10:15:48;;;;;;;84.93;23.88;;;6.10;99.90;;;;;;6065085;23;20155;-84
2021/12/20 10:18:16;;;;;;;83.57;18.88;;;6.20;99.90;;;;;;6078666;23;20154;-85
2021/12/20 10:20:57;;;;;;;76.60;20.23;;;6.20;99.90;;;;;;6099769;23;20174;-84
2021/12/20 10:23:44;;;;;;;77.80;14.15;;;6.20;99.90;;;;;;6100806;23;20192;-83
2021/12/20 10:26:19;;;;;;;75.85;12.98;;;6.20;99.90;;;;;;6100163;23;20628;-85
2021/12/20 10:28:52;;;;;;;76.35;11.93;;;6.30;99.90;;;;;;6100701;23;20602;-83
2021/12/20 10:31:29;;;;;;;81.85;13.95;;;6.20;99.90;;;;;;6126310;23;20127;-85
2021/12/20 10:34:35;;;;;;;74.78;14.93;;;6.30;99.90;;;;;;6122868;23;20178;-84
2021/12/20 10:37:07;;;;;;;83.18;15.52;;;6.40;99.90;;;;;;6126153;23;20180;-83
2021/12/20 10:39:54;;;;;;;76.43;15.10;;;6.40;99.90;;;;;;6099810;23;20192;-84
2021/12/20 10:42:39;;;;;;;79.82;14.35;;;6.40;99.90;;;;;;6126057;23;20162;-85
2021/12/20 10:45:20;;;;;;;80.00;18.42;;;6.40;99.90;;;;;;6098931;23;20610;-83
2021/12/20 10:47:51;;;;;;;84.93;34.97;;;6.50;99.90;;;;;;6098718;23;20700;-84
2021/12/20 10:50:20;;;;;;;89.32;38.22;;;6.50;99.90;;;;;;6099911;23;20196;-84
2021/12/20 10:52:53;;;;;;;77.75;26.40;;;6.60;99.90;;;;;;6094557;23;20150;-83
2021/12/20 10:55:58;;;;;;;86.85;36.75;;;6.70;99.90;;;;;;6126546;23;20131;-83
2021/12/20 10:58:40;;;;;;;84.10;26.25;;;6.60;99.90;;;;;;6013626;23;20155;-84
2021/12/20 11:04:59;;;;;;;;;;;;;;;;;;;;;
2021/12/20 11:10:44;;;;;;;82.22;23.90;;;6.60;99.90;;;;;;6127833;23;20188;-83
2021/12/20 11:13:21;;;;;;;79.43;30.17;;;6.70;99.90;;;;;;6101385;23;20527;-83
2021/12/20 11:16:02;;;;;;;76.85;12.57;;;6.60;99.90;;;;;;6126727;23;20123;-83
2021/12/20 11:18:37;;;;;;;77.40;17.48;;;6.60;99.90;;;;;;6102493;23;20150;-84
2021/12/20 11:21:25;;;;;;;;;;;;;;;;;;;;;
2021/12/20 11:23:54;;;;;;;75.35;14.43;;;6.70;99.90;;;;;;6126558;23;20415;-84
2021/12/20 11:27:21;;;;;;;80.05;12.48;;;6.70;99.90;;;;;;6100913;23;20151;-84
2021/12/20 11:29:53;;;;;;;86.03;18.45;;;6.70;99.90;;;;;;6099457;23;20150;-84
2021/12/20 11:32:33;;;;;;;73.20;17.20;;;6.90;99.90;;;;;;6105218;23;20155;-83
2021/12/20 11:35:05;;;;;;;77.38;13.93;;;6.80;99.90;;;;;;6103068;23;20174;-85
2021/12/20 11:37:41;;;;;;;79.68;16.63;;;6.70;99.90;;;;;;6102851;23;20155;-85
2021/12/20 11:44:00;;;;;;;;;;;;;;;;;;;;;
2021/12/20 11:47:10;;;;;;;97.70;22.45;;;7.00;99.90;;;;;;6184037;23;20188;-84
2021/12/20 11:49:38;;;;;;;82.80;26.60;;;6.90;99.90;;;;;;6100766;23;20175;-85
2021/12/20 11:52:32;;;;;;;80.55;32.47;;;6.90;97.70;;;;;;6146908;23;20500;-85
2021/12/20 11:55:47;;;;;;;79.10;26.23;;;6.90;92.70;;;;;;6126974;23;20170;-84
2021/12/20 11:58:38;;;;;;;80.22;16.42;;;6.80;72.40;;;;;;6037111;23;20169;-83
2021/12/20 12:01:25;;;;;;;79.68;15.80;;;6.80;64.70;;;;;;6111305;23;20182;-84
2021/12/20 12:04:17;;;;;;;76.00;19.00;;;6.80;62.90;;;;;;6099815;23;20241;-83
2021/12/20 12:07:09;;;;;;;78.85;15.88;;;6.80;69.60;;;;;;6126218;23;20158;-84
2021/12/20 12:10:32;;;;;;;73.55;13.55;;;6.80;75.80;;;;;;6097815;23;20151;-84
2021/12/20 12:13:34;;;;;;;80.38;18.20;;;6.90;70.50;;;;;;6077089;23;20173;-84
2021/12/20 12:20:04;;;;;;;74.07;16.00;;;6.80;73.70;;;;;;6125667;23;20134;-86
2021/12/20 12:22:46;;;;;;;72.97;18.77;;;6.80;64.80;;;;;;6030126;23;20465;-85
2021/12/20 12:25:18;;;;;;;71.18;15.35;;;6.80;62.40;;;;;;6126222;23;20123;-84
2021/12/20 12:27:58;;;;;;;73.65;16.13;;;6.90;65.60;;;;;;6100566;23;20472;-84
2021/12/20 12:30:33;;;;;;;72.57;16.52;;;6.80;55.20;;;;;;6098919;23;20153;-86
2021/12/20 12:35:43;;;;;;;70.53;11.55;;;6.80;46.20;;;;;;6154973;23;20176;-86
2021/12/20 12:47:43;;;;;;;69.85;11.85;;;6.90;45.60;;;;;;6033510;23;20144;-88
2021/12/20 12:54:49;;;;;;;;;;;;;;;;;;;;;
2021/12/20 12:58:29;;;;;;;;;;;;;;;;;;;;;
2021/12/20 13:49:49;;;;;;;69.13;8.55;;;6.60;7.40;;;;;;6032586;23;20163;-89
2021/12/20 13:53:10;;;;;;;82.65;8.10;;;6.60;14.60;;;;;;6031924;23;20572;-89
2021/12/20 13:56:33;;;;;;;;;;;;;;;;;;;;;
2021/12/20 14:12:26;;;;;;;70.63;9.40;;;6.40;25.00;;;;;;6122178;23;20181;-89
2021/12/20 14:22:22;;;;;;;67.78;9.20;;;6.40;28.80;;;;;;6025949;23;20197;-89
2021/12/20 14:25:13;;;;;;;71.18;9.77;;;6.50;21.30;;;;;;6067276;23;20179;-88
2021/12/20 14:28:42;;;;;;;68.28;11.32;;;6.40;22.70;;;;;;6061775;23;20156;-89
2021/12/20 14:35:38;;;;;;;;;;;;;;;;;;;;;
2021/12/20 14:39:25;;;;;;;;;;;;;;;;;;;;;
2021/12/20 14:42:34;;;;;;;68.88;8.88;;;6.30;15.90;;;;;;6038082;23;20258;-89
2021/12/20 14:49:14;;;;;;;;;;;;;;;;;;;;;
2021/12/20 14:52:39;;;;;;;73.97;10.45;;;6.20;25.10;;;;;;6061092;23;20238;-89
2021/12/20 14:56:12;;;;;;;70.90;13.30;;;6.20;25.20;;;;;;6018924;23;20160;-88
2021/12/20 14:59:30;;;;;;;;;;;;;;;;;;;;;
2021/12/20 15:05:49;;;;;;;68.00;13.50;;;6.20;19.10;;;;;;6017534;23;20732;-89
2021/12/20 15:11:41;;;;;;;72.65;16.65;;;6.20;24.90;;;;;;6123665;23;20528;-88
2021/12/20 15:17:43;;;;;;;;;;;;;;;;;;;;;
2021/12/20 15:21:01;;;;;;;69.72;6.90;;;5.90;33.40;;;;;;6106973;23;20230;-88
2021/12/20 15:28:17;;;;;;;70.40;18.23;;;5.50;52.80;;;;;;6121244;23;20181;-89
2021/12/20 15:40:07;;;;;;;67.53;7.18;;;4.70;79.10;;;;;;6115514;23;20202;-88
2021/12/20 15:43:40;;;;;;;68.20;8.90;;;4.70;82.90;;;;;;6112128;23;20250;-88
2021/12/20 15:47:08;;;;;;;68.50;11.23;;;4.50;90.90;;;;;;6094943;23;20154;-88
2021/12/20 15:53:22;;;;;;;;;;;;;;;;;;;;;
2021/12/20 15:55:57;;;;;;;70.03;10.38;;;4.10;96.70;;;;;;6124907;23;20229;-88
2021/12/20 15:58:55;;;;;;;69.38;8.25;;;3.90;98.90;;;;;;5979479;23;20236;-88
2021/12/20 16:02:10;;;;;;;69.15;7.07;;;3.80;99.90;;;;;;5949027;24;20265;-88
2021/12/20 16:05:21;;;;;;;71.65;9.05;;;3.70;99.90;;;;;;6086355;23;20204;-88
2021/12/20 16:08:28;;;;;;;70.80;17.35;;;3.70;99.90;;;;;;5981210;23;20611;-88
2021/12/20 16:14:33;;;;;;;77.03;21.17;;;3.40;99.90;;;;;;5987394;23;20486;-88
2021/12/20 16:17:18;;;;;;;;;;;;;;;;;;;;;
2021/12/20 16:20:03;;;;;;;72.63;18.80;;;3.30;99.90;;;;;;5981221;24;20240;-88
2021/12/20 16:25:52;;;;;;;73.78;11.95;;;3.10;99.90;;;;;;6112583;23;20206;-89
2021/12/20 16:28:59;;;;;;;;;;;;;;;;;;;;;
2021/12/20 16:31:44;;;;;;;71.10;9.73;;;3.00;99.90;;;;;;6117945;23;20226;-89
2021/12/20 16:42:17;;;;;;;70.18;11.23;;;2.80;99.90;;;;;;6051145;23;20182;-89
2021/12/20 16:49:10;;;;;;;;;;;;;;;;;;;;;
2021/12/20 16:55:06;;;;;;;;;;;;;;;;;;;;;
2021/12/20 17:02:53;;;;;;;72.82;10.75;;;2.60;99.90;;;;;;6138142;23;20542;-89
2021/12/20 17:09:38;;;;;;;;;;;;;;;;;;;;;
2021/12/20 17:11:41;;;;;;;;;;;;;;;;;;;;;
2021/12/20 17:14:18;;;;;;;77.47;19.35;;;2.30;99.90;;;;;;6153837;23;20236;-89
2021/12/20 17:17:18;;;;;;;84.65;25.40;;;2.20;99.90;;;;;;6128650;23;20157;-89
2021/12/20 17:20:16;;;;;;;83.50;18.27;;;2.20;99.90;;;;;;6154136;23;20676;-89
2021/12/20 17:23:29;;;;;;;77.30;16.15;;;2.10;99.90;;;;;;6042083;23;20207;-90
2021/12/20 17:26:30;;;;;;;85.20;23.00;;;2.20;99.90;;;;;;6047623;23;20476;-89
2021/12/20 17:33:42;;;;;;;;;;;;;;;;;;;;;
2021/12/20 17:37:03;;;;;;;;;;;;;;;;;;;;;
2021/12/20 17:40:37;;;;;;;77.78;14.00;;;2.50;99.90;;;;;;5986872;23;20228;-89
2021/12/20 17:43:57;;;;;;;89.55;15.90;;;2.50;99.90;;;;;;5897126;23;20194;-89
2021/12/20 17:46:57;;;;;;;80.72;20.27;;;2.30;99.90;;;;;;6032734;23;20191;-88
2021/12/20 17:49:43;;;;;;;76.85;16.38;;;2.20;99.90;;;;;;5980335;23;20153;-89
2021/12/20 17:52:31;;;;;;;80.05;13.00;;;2.00;99.90;;;;;;6004849;23;20158;-88
2021/12/20 17:55:24;;;;;;;72.18;11.50;;;1.90;99.90;;;;;;6112445;23;20232;-88
2021/12/20 17:58:29;;;;;;;74.05;11.52;;;1.70;99.90;;;;;;6096144;23;20150;-89
2021/12/20 18:04:42;;;;;;;74.40;12.20;;;1.60;99.90;;;;;;6152644;23;20546;-88
2021/12/20 18:11:34;;;;;;;73.93;11.40;;;1.60;99.90;;;;;;5986677;23;20169;-89
2021/12/20 18:24:24;;;;;;;80.53;12.68;;;1.50;99.90;;;;;;6118417;23;20655;-89
2021/12/20 18:30:22;;;;;;;;;;;;;;;;;;;;;
2021/12/20 18:33:18;;;;;;;74.50;15.68;;;1.50;99.90;;;;;;6122787;23;20231;-90
2021/12/20 18:36:13;;;;;;;75.95;15.90;;;1.50;99.90;;;;;;6096592;23;20602;-89
2021/12/20 18:38:56;;;;;;;;;;;;;;;;;;;;;
2021/12/20 18:41:28;;;;;;;75.38;16.35;;;1.50;99.90;;;;;;6120179;23;20280;-83
2021/12/20 18:44:27;;;;;;;78.03;16.42;;;1.40;99.90;;;;;;6101348;23;20532;-83
2021/12/20 18:47:00;;;;;;;79.10;18.13;;;1.30;99.90;;;;;;6127551;23;20135;-84
2021/12/20 18:49:36;;;;;;;76.78;17.50;;;1.30;99.90;;;;;;6101290;23;20171;-84
2021/12/20 18:52:11;;;;;;;74.75;15.45;;;1.20;99.90;;;;;;6126428;23;20150;-83
2021/12/20 18:54:53;;;;;;;75.10;16.48;;;1.20;99.90;;;;;;6127579;23;20166;-83
2021/12/20 18:57:39;;;;;;;77.93;15.65;;;1.00;99.90;;;;;;6127376;23;20204;-84
2021/12/20 19:00:09;;;;;;;76.03;14.43;;;1.10;99.90;;;;;;6101388;23;20142;-84
2021/12/20 19:03:16;;;;;;;76.30;15.15;;;1.10;99.90;;;;;;6126625;23;20166;-84
2021/12/20 19:05:47;;;;;;;72.47;14.48;;;1.00;99.90;;;;;;6127129;23;20150;-82
2021/12/20 19:08:25;;;;;;;75.97;14.40;;;1.00;99.90;;;;;;6127116;23;20142;-83
2021/12/20 19:11:18;;;;;;;81.70;15.48;;;0.90;99.90;;;;;;6128510;23;20131;-85
2021/12/20 19:13:55;;;;;;;81.95;16.27;;;0.90;99.90;;;;;;6127480;23;20193;-84
2021/12/20 19:16:24;;;;;;;74.18;16.05;;;0.80;99.90;;;;;;6127233;23;20123;-84
2021/12/20 19:18:52;;;;;;;76.72;16.67;;;0.80;99.90;;;;;;6101161;23;20150;-84
2021/12/20 19:21:21;;;;;;;75.10;16.20;;;0.80;99.90;;;;;;6127639;23;20167;-85
2021/12/20 19:23:56;;;;;;;80.10;17.20;;;0.80;99.90;;;;;;6128436;23;20169;-84
2021/12/20 19:26:24;;;;;;;79.53;16.55;;;0.90;99.90;;;;;;6103077;23;20142;-84